Pilot No. 4 — WDA5463 — position and weather

sailwx.info

Track history (hours):
 
Tides and Currents Weather Stations Pressure Air Temp Water Temp Dewpoint Dewpoint Depression Visibility Wind Speed Wind Dir Waves Ship Positions

Pilot No. 4

Owner: P E P Inc, FORT LAUDERDALE, FL. More information available from US FCC via Universal Licensing System and Coast Guard Vessel Documentation Center.

Last reported at 2015-May-05 09:33 UTC. Time now 2015-May-05 10:14 UTC.
Position N 26°06' W 080°07'.

MMSI: 495270931.

Date/timePositionNaut miles runAvg speedWind from/ knotsBaromVisibWave heightAir tempDewpointWater temp
2015-May-05 09:33N 26°06' W 080°07'1 0.6
2015-May-05 08:33N 26°06' W 080°07'1 0.8
2015-May-05 07:33N 26°06' W 080°07'0 0.0
2015-May-05 06:33N 26°06' W 080°07'0 0.0
2015-May-05 05:33N 26°06' W 080°07'0 0.4
2015-May-05 04:33N 26°06' W 080°07'0 0.0
2015-May-04 22:13N 26°06' W 080°07'0 0.0
2015-May-04 21:33N 26°06' W 080°07'0 0.0
2015-May-04 11:33N 26°06' W 080°07'1 0.5
2015-May-04 10:33N 26°06' W 080°07'2 2.1
2015-May-04 09:33N 26°05' W 080°05'2 2.0
2015-May-04 08:33N 26°05' W 080°07'1 0.9
2015-May-04 07:33N 26°06' W 080°07'1 0.8
2015-May-04 06:34N 26°05' W 080°07'2 1.6
2015-May-04 05:33N 26°06' W 080°05'2 1.8
2015-May-04 04:32N 26°06' W 080°07'  
2015-Apr-30 14:21N 26°06' W 080°07'0 0.0
2015-Apr-29 20:33N 26°06' W 080°07'0 0.0
2015-Apr-29 17:20N 26°06' W 080°07'3 4.5
2015-Apr-29 16:33N 26°06' W 080°04'3 3.2
2015-Apr-29 15:33N 26°05' W 080°07'1 0.8
2015-Apr-29 14:28N 26°06' W 080°07'2 1.8
2015-Apr-29 13:34N 26°06' W 080°06'1 1.2
2015-Apr-29 12:33N 26°05' W 080°07'0 0.0
2015-Apr-29 11:33N 26°05' W 080°07'1 0.1
2015-Apr-28 17:14N 26°06' W 080°07'1 0.9
2015-Apr-28 16:33N 26°06' W 080°07'  
2015-Apr-26 03:33N 26°06' W 080°08'1 0.5
2015-Apr-26 02:33N 26°06' W 080°07'0 0.4
2015-Apr-26 01:33N 26°06' W 080°07'1 1.0
2015-Apr-26 00:34N 26°05' W 080°07'1 0.6
2015-Apr-25 23:33N 26°05' W 080°07'1 1.0
2015-Apr-25 22:33N 26°06' W 080°06'0 0.4
2015-Apr-25 21:33N 26°06' W 080°07'0 0.2
2015-Apr-25 20:34N 26°05' W 080°07'1 0.3
2015-Apr-25 17:33N 26°06' W 080°07'1 1.4
2015-Apr-25 16:33N 26°05' W 080°07'1 0.7
2015-Apr-25 15:33N 26°06' W 080°07'1 0.8
2015-Apr-25 14:33N 26°06' W 080°07'1 0.8
2015-Apr-25 13:33N 26°06' W 080°07'3 2.6
2015-Apr-25 12:33N 26°06' W 080°04'3 1.4
2015-Apr-25 10:12N 26°06' W 080°07'2 3.0
2015-Apr-25 09:34N 26°06' W 080°05'  
Track history (hours):
 
Tides and Currents Weather Stations Pressure Air Temp Water Temp Dewpoint Dewpoint Depression Visibility Wind Speed Wind Dir Waves Ship Positions

Pilot No. 4

Owner: P E P Inc, FORT LAUDERDALE, FL. More information available from US FCC via Universal Licensing System and Coast Guard Vessel Documentation Center.

Last reported at 2015-May-05 09:33 UTC. Time now 2015-May-05 10:14 UTC.
Position N 26°06' W 080°07'.

MMSI: 495270931.

Date/timePositionNaut miles runAvg speedWind from/ knotsBaromVisibWave heightAir tempDewpointWater temp
2015-May-05 09:33N 26°06' W 080°07'1 0.6
2015-May-05 08:33N 26°06' W 080°07'1 0.8
2015-May-05 07:33N 26°06' W 080°07'0 0.0
2015-May-05 06:33N 26°06' W 080°07'0 0.0
2015-May-05 05:33N 26°06' W 080°07'0 0.4
2015-May-05 04:33N 26°06' W 080°07'0 0.0
2015-May-04 22:13N 26°06' W 080°07'0 0.0
2015-May-04 21:33N 26°06' W 080°07'0 0.0
2015-May-04 11:33N 26°06' W 080°07'1 0.5
2015-May-04 10:33N 26°06' W 080°07'2 2.1
2015-May-04 09:33N 26°05' W 080°05'2 2.0
2015-May-04 08:33N 26°05' W 080°07'1 0.9
2015-May-04 07:33N 26°06' W 080°07'1 0.8
2015-May-04 06:34N 26°05' W 080°07'2 1.6
2015-May-04 05:33N 26°06' W 080°05'2 1.8
2015-May-04 04:32N 26°06' W 080°07'  
2015-Apr-30 14:21N 26°06' W 080°07'0 0.0
2015-Apr-29 20:33N 26°06' W 080°07'0 0.0
2015-Apr-29 17:20N 26°06' W 080°07'3 4.5
2015-Apr-29 16:33N 26°06' W 080°04'3 3.2
2015-Apr-29 15:33N 26°05' W 080°07'1 0.8
2015-Apr-29 14:28N 26°06' W 080°07'2 1.8
2015-Apr-29 13:34N 26°06' W 080°06'1 1.2
2015-Apr-29 12:33N 26°05' W 080°07'0 0.0
2015-Apr-29 11:33N 26°05' W 080°07'1 0.1
2015-Apr-28 17:14N 26°06' W 080°07'1 0.9
2015-Apr-28 16:33N 26°06' W 080°07'  
2015-Apr-26 03:33N 26°06' W 080°08'1 0.5
2015-Apr-26 02:33N 26°06' W 080°07'0 0.4
2015-Apr-26 01:33N 26°06' W 080°07'1 1.0
2015-Apr-26 00:34N 26°05' W 080°07'1 0.6
2015-Apr-25 23:33N 26°05' W 080°07'1 1.0
2015-Apr-25 22:33N 26°06' W 080°06'0 0.4
2015-Apr-25 21:33N 26°06' W 080°07'0 0.2
2015-Apr-25 20:34N 26°05' W 080°07'1 0.3
2015-Apr-25 17:33N 26°06' W 080°07'1 1.4
2015-Apr-25 16:33N 26°05' W 080°07'1 0.7
2015-Apr-25 15:33N 26°06' W 080°07'1 0.8
2015-Apr-25 14:33N 26°06' W 080°07'1 0.8
2015-Apr-25 13:33N 26°06' W 080°07'3 2.6
2015-Apr-25 12:33N 26°06' W 080°04'3 1.4
2015-Apr-25 10:12N 26°06' W 080°07'2 3.0
2015-Apr-25 09:34N 26°06' W 080°05'  

Dump ship's entire track history